Time;durP1;ratioP1;P1;durP2;ratioP2;P2;SDS_P1;SDS_P2;PMS_P1;PMS_P2;Temp;Humidity;BMP_temperature;BMP_pressure;BME280_temperature;BME280_humidity;BME280_pressure;Samples;Min_cycle;Max_cycle;Signal;HPM_P1;HPM_P2
2022/10/30 00:01:25;;;;;;;9.17;7.33;;;15.80;99.90;;;;;;5091572;28;20232;-59
2022/10/30 00:03:51;;;;;;;12.03;8.00;;;15.80;99.90;;;;;;5094648;28;20183;-58
2022/10/30 00:06:16;;;;;;;15.90;8.90;;;15.90;99.90;;;;;;5091722;28;20705;-56
2022/10/30 00:08:42;;;;;;;14.13;8.53;;;15.90;99.90;;;;;;5110609;28;20175;-57
2022/10/30 00:11:09;;;;;;;12.63;7.07;;;15.90;99.90;;;;;;5110768;28;20245;-60
2022/10/30 00:13:36;;;;;;;12.40;7.47;;;15.90;99.90;;;;;;5110350;28;20165;-58
2022/10/30 00:16:04;;;;;;;13.00;7.67;;;15.90;99.90;;;;;;5111003;28;20644;-59
2022/10/30 00:18:30;;;;;;;11.50;7.50;;;15.90;99.90;;;;;;5110986;28;20163;-57
2022/10/30 00:20:56;;;;;;;13.70;8.00;;;15.90;99.90;;;;;;5111465;28;20203;-58
2022/10/30 00:23:21;;;;;;;12.03;7.00;;;15.90;99.90;;;;;;5114298;28;20232;-59
2022/10/30 00:25:47;;;;;;;11.47;7.07;;;15.80;99.90;;;;;;5113963;28;20191;-57
2022/10/30 00:28:13;;;;;;;8.27;6.40;;;15.90;99.90;;;;;;5114507;28;20169;-59
2022/10/30 00:30:38;;;;;;;9.70;6.73;;;15.90;99.90;;;;;;5114205;28;20197;-59
2022/10/30 00:33:04;;;;;;;11.57;6.47;;;15.90;99.90;;;;;;5114265;28;20176;-61
2022/10/30 00:35:30;;;;;;;12.53;6.17;;;15.80;99.90;;;;;;5113976;28;20229;-60
2022/10/30 00:37:56;;;;;;;13.70;6.50;;;15.90;99.90;;;;;;5114314;28;20193;-59
2022/10/30 00:40:23;;;;;;;11.47;6.00;;;15.90;99.90;;;;;;5114084;28;20566;-59
2022/10/30 00:42:48;;;;;;;12.63;6.60;;;15.90;99.90;;;;;;5113921;28;20255;-60
2022/10/30 00:45:16;;;;;;;10.03;6.33;;;15.90;99.90;;;;;;5113770;28;20252;-58
2022/10/30 00:47:49;;;;;;;10.30;6.57;;;15.90;99.90;;;;;;5113958;28;20518;-60
2022/10/30 00:50:20;;;;;;;11.60;6.17;;;15.90;99.90;;;;;;5113977;28;20250;-59
2022/10/30 00:53:04;;;;;;;7.77;5.40;;;15.80;99.90;;;;;;5113646;28;20165;-59
2022/10/30 00:55:33;;;;;;;8.87;6.17;;;15.80;99.90;;;;;;5113599;28;20543;-60
2022/10/30 00:58:01;;;;;;;9.13;5.67;;;15.80;99.90;;;;;;5113723;28;20191;-61
2022/10/30 01:00:28;;;;;;;9.57;6.07;;;15.80;99.90;;;;;;5113472;28;20212;-59
2022/10/30 01:02:55;;;;;;;9.70;6.60;;;15.70;99.90;;;;;;5095314;28;20179;-61
2022/10/30 01:05:22;;;;;;;11.70;7.43;;;15.80;99.90;;;;;;5113344;28;20309;-60
2022/10/30 01:07:48;;;;;;;10.93;6.33;;;15.70;99.90;;;;;;5113165;28;20546;-60
2022/10/30 01:10:14;;;;;;;14.67;7.00;;;15.70;99.90;;;;;;5113114;28;20174;-58
2022/10/30 01:12:42;;;;;;;8.87;6.43;;;15.70;99.90;;;;;;5113275;28;20169;-58
2022/10/30 01:15:08;;;;;;;10.60;5.90;;;15.60;99.90;;;;;;5112867;28;20608;-59
2022/10/30 01:17:40;;;;;;;9.17;5.83;;;15.50;99.90;;;;;;5112438;28;20256;-60
2022/10/30 01:20:30;;;;;;;13.20;6.23;;;15.60;99.90;;;;;;5112652;28;20174;-57
2022/10/30 01:23:16;;;;;;;10.00;6.03;;;15.70;99.90;;;;;;5113174;28;20176;-58
2022/10/30 01:25:59;;;;;;;9.87;5.63;;;15.60;99.90;;;;;;5113093;28;20265;-57
2022/10/30 01:28:55;;;;;;;16.17;6.33;;;15.60;99.90;;;;;;5113331;28;20522;-56
2022/10/30 01:31:41;;;;;;;11.70;6.13;;;15.60;99.90;;;;;;5112466;28;20561;-58
2022/10/30 01:34:12;;;;;;;12.23;6.23;;;15.60;99.90;;;;;;5113037;28;20307;-58
2022/10/30 01:36:53;;;;;;;11.23;6.30;;;15.60;99.90;;;;;;5112878;28;20174;-54
2022/10/30 01:39:25;;;;;;;11.53;6.77;;;15.50;99.90;;;;;;5113133;28;20175;-59
2022/10/30 01:41:52;;;;;;;10.30;6.40;;;15.50;99.90;;;;;;5112680;28;20200;-57
2022/10/30 01:44:30;;;;;;;14.43;7.20;;;15.50;99.90;;;;;;5112681;28;20184;-60
2022/10/30 01:47:14;;;;;;;13.83;6.70;;;15.40;99.90;;;;;;5112691;28;20209;-58
2022/10/30 01:50:25;;;;;;;12.03;6.50;;;15.30;99.90;;;;;;5112869;28;20543;-54
2022/10/30 01:53:07;;;;;;;9.93;6.80;;;15.30;99.90;;;;;;5112640;28;20651;-58
2022/10/30 01:56:24;;;;;;;13.40;6.60;;;15.30;99.90;;;;;;5112793;28;20205;-55
2022/10/30 01:59:16;;;;;;;10.63;6.73;;;15.20;99.90;;;;;;5009861;28;20603;-58
2022/10/30 02:01:42;;;;;;;12.13;6.90;;;15.30;99.90;;;;;;5007286;28;20233;-61
2022/10/30 02:04:10;;;;;;;11.60;6.47;;;15.30;99.90;;;;;;5008775;28;20534;-56
2022/10/30 02:06:36;;;;;;;12.27;7.27;;;15.30;99.90;;;;;;5009766;28;20214;-58
2022/10/30 02:09:03;;;;;;;14.90;6.90;;;15.20;99.90;;;;;;5009138;28;20582;-58
2022/10/30 02:11:31;;;;;;;9.87;6.70;;;15.20;99.90;;;;;;5023865;28;20201;-58
2022/10/30 02:13:59;;;;;;;11.93;6.93;;;15.20;99.90;;;;;;5008893;28;20188;-58
2022/10/30 02:16:25;;;;;;;7.93;6.00;;;15.20;99.90;;;;;;5009321;28;20183;-57
2022/10/30 02:18:50;;;;;;;11.57;6.27;;;15.10;99.90;;;;;;5009361;28;20747;-54
2022/10/30 02:21:16;;;;;;;12.47;7.00;;;15.10;99.90;;;;;;5009086;28;20255;-59
2022/10/30 02:23:41;;;;;;;12.27;7.37;;;15.10;99.90;;;;;;5009111;28;20191;-58
2022/10/30 02:26:07;;;;;;;11.73;7.37;;;15.10;99.90;;;;;;5008795;28;20694;-59
2022/10/30 02:28:33;;;;;;;13.03;8.10;;;15.10;99.90;;;;;;5009362;28;20567;-58
2022/10/30 02:30:58;;;;;;;13.37;8.77;;;15.10;99.90;;;;;;5008537;28;20232;-58
2022/10/30 02:33:24;;;;;;;11.47;7.77;;;14.60;99.90;;;;;;5097126;28;20182;-58
2022/10/30 02:35:50;;;;;;;13.43;8.40;;;15.00;99.90;;;;;;5111496;28;20184;-57
2022/10/30 02:38:16;;;;;;;14.80;8.10;;;15.10;99.90;;;;;;5111231;28;20178;-57
2022/10/30 02:40:41;;;;;;;11.87;8.03;;;15.00;99.90;;;;;;5111209;28;20203;-58
2022/10/30 02:43:07;;;;;;;12.37;7.37;;;15.10;99.90;;;;;;5110222;28;20181;-57
2022/10/30 02:45:33;;;;;;;11.47;7.30;;;15.00;99.90;;;;;;5111214;28;20231;-55
2022/10/30 02:47:59;;;;;;;10.07;7.33;;;15.10;99.90;;;;;;5111420;28;20596;-55
2022/10/30 02:50:25;;;;;;;14.33;8.07;;;15.10;99.90;;;;;;5111457;28;20202;-58
2022/10/30 02:52:51;;;;;;;10.17;7.40;;;15.00;99.90;;;;;;5111328;28;20173;-59
2022/10/30 02:55:17;;;;;;;11.17;7.80;;;15.00;99.90;;;;;;5111150;28;20548;-58
2022/10/30 02:57:42;;;;;;;12.20;7.37;;;14.90;99.90;;;;;;5111022;28;20584;-56
2022/10/30 03:00:09;;;;;;;9.43;7.03;;;15.00;99.90;;;;;;5110904;28;20252;-57
2022/10/30 03:02:34;;;;;;;11.67;7.27;;;15.10;99.90;;;;;;5111191;28;20254;-56
2022/10/30 03:05:00;;;;;;;14.03;7.13;;;15.10;99.90;;;;;;5110846;28;20573;-55
2022/10/30 03:07:25;;;;;;;12.80;6.93;;;15.10;99.90;;;;;;5110975;28;20202;-56
2022/10/30 03:09:53;;;;;;;9.77;6.50;;;15.00;99.90;;;;;;5111348;28;20578;-57
2022/10/30 03:12:18;;;;;;;9.77;6.47;;;15.10;99.90;;;;;;5110511;28;20554;-59
2022/10/30 03:14:44;;;;;;;9.60;6.27;;;15.10;99.90;;;;;;5110540;28;20252;-56
2022/10/30 03:17:10;;;;;;;10.00;7.23;;;15.10;99.90;;;;;;5111061;28;20183;-58
2022/10/30 03:19:35;;;;;;;13.37;8.00;;;15.10;99.90;;;;;;5111244;28;20184;-57
2022/10/30 03:22:01;;;;;;;11.90;6.33;;;15.10;99.90;;;;;;5110503;28;20255;-56
2022/10/30 03:24:27;;;;;;;9.60;5.83;;;15.00;99.90;;;;;;5110900;28;20189;-58
2022/10/30 03:26:52;;;;;;;10.43;5.60;;;15.00;99.90;;;;;;5092020;28;20197;-59
2022/10/30 03:29:18;;;;;;;11.40;6.17;;;15.00;99.90;;;;;;5110785;28;20179;-58
2022/10/30 03:31:43;;;;;;;10.23;5.80;;;15.00;99.90;;;;;;5099156;28;20203;-59
2022/10/30 03:34:09;;;;;;;12.20;5.90;;;15.00;99.90;;;;;;5110954;28;20260;-57
2022/10/30 03:36:34;;;;;;;9.47;6.20;;;15.00;99.90;;;;;;5110787;28;20174;-60
2022/10/30 03:39:00;;;;;;;9.27;5.83;;;14.90;99.90;;;;;;5110874;28;20182;-59
2022/10/30 03:41:26;;;;;;;10.63;5.57;;;14.90;99.90;;;;;;5110783;28;20666;-59
2022/10/30 03:43:51;;;;;;;9.83;4.80;;;15.00;99.90;;;;;;5091348;28;20697;-58
2022/10/30 03:46:17;;;;;;;8.63;4.73;;;15.00;99.90;;;;;;5111009;28;20232;-58
2022/10/30 03:48:42;;;;;;;12.77;4.70;;;15.00;99.90;;;;;;5110693;28;20172;-59
2022/10/30 03:51:08;;;;;;;9.33;4.87;;;15.00;99.90;;;;;;5110974;28;20275;-58
2022/10/30 03:53:33;;;;;;;8.97;4.40;;;15.10;99.90;;;;;;5110207;28;20171;-56
2022/10/30 03:56:01;;;;;;;13.70;4.70;;;15.10;99.90;;;;;;5113362;28;20347;-58
2022/10/30 03:58:28;;;;;;;7.37;4.17;;;15.10;99.90;;;;;;5114780;28;20536;-56
2022/10/30 04:00:54;;;;;;;8.40;4.30;;;15.00;99.90;;;;;;5114315;28;20214;-58
2022/10/30 04:03:20;;;;;;;7.87;4.37;;;15.00;99.90;;;;;;5114510;28;20692;-53
2022/10/30 04:05:49;;;;;;;8.10;3.97;;;15.00;99.90;;;;;;5114078;28;20190;-55
2022/10/30 04:08:15;;;;;;;6.80;4.10;;;15.00;99.90;;;;;;5114699;28;20210;-59
2022/10/30 04:10:43;;;;;;;9.47;3.70;;;15.00;99.90;;;;;;5114206;28;20197;-59
2022/10/30 04:13:10;;;;;;;6.93;4.10;;;14.90;99.90;;;;;;5113825;28;20223;-58
2022/10/30 04:15:36;;;;;;;7.73;3.90;;;14.90;99.90;;;;;;5114059;28;20331;-57
2022/10/30 04:18:02;;;;;;;9.53;3.93;;;14.90;99.90;;;;;;5114184;28;20182;-59
2022/10/30 04:20:28;;;;;;;9.13;4.30;;;14.90;99.90;;;;;;5114035;28;20204;-59
2022/10/30 04:22:58;;;;;;;9.47;4.27;;;14.80;99.90;;;;;;5113735;28;20256;-55
2022/10/30 04:25:25;;;;;;;9.83;4.17;;;14.70;99.90;;;;;;5114244;28;20554;-58
2022/10/30 04:27:53;;;;;;;8.13;4.63;;;14.60;99.90;;;;;;5113664;28;20190;-56
2022/10/30 04:30:21;;;;;;;7.50;4.17;;;14.60;99.90;;;;;;5113435;28;20189;-59
2022/10/30 04:32:52;;;;;;;9.70;4.30;;;14.60;99.90;;;;;;5113926;28;20176;-58
2022/10/30 04:35:19;;;;;;;10.90;5.03;;;14.50;99.90;;;;;;5113621;28;20260;-60
2022/10/30 04:37:52;;;;;;;8.27;4.10;;;14.50;99.90;;;;;;5113534;28;20176;-60
2022/10/30 04:40:18;;;;;;;8.40;4.50;;;14.60;99.90;;;;;;5094960;28;20177;-58
2022/10/30 04:42:47;;;;;;;9.67;4.53;;;14.50;99.90;;;;;;5113828;28;20673;-59
2022/10/30 04:45:13;;;;;;;8.20;4.40;;;14.50;99.90;;;;;;5113418;28;20207;-58
2022/10/30 04:47:38;;;;;;;9.57;4.27;;;14.40;99.90;;;;;;5108794;28;20181;-57
2022/10/30 04:50:04;;;;;;;9.10;4.13;;;14.40;99.90;;;;;;5113716;28;20174;-56
2022/10/30 04:52:30;;;;;;;10.20;4.30;;;14.50;99.90;;;;;;5113136;28;20173;-57
2022/10/30 04:54:55;;;;;;;7.07;4.20;;;14.40;99.90;;;;;;5113142;28;20245;-58
2022/10/30 04:57:21;;;;;;;14.17;4.50;;;14.30;99.90;;;;;;5113128;28;20176;-57
2022/10/30 04:59:46;;;;;;;12.03;4.80;;;14.30;99.90;;;;;;5113625;28;20184;-58
2022/10/30 05:02:12;;;;;;;7.43;4.47;;;14.30;99.90;;;;;;5112802;28;20205;-58
2022/10/30 05:04:37;;;;;;;8.30;4.33;;;14.30;99.90;;;;;;5094705;28;20262;-58
2022/10/30 05:07:03;;;;;;;11.87;4.27;;;14.30;99.90;;;;;;5112550;28;20208;-57
2022/10/30 05:09:29;;;;;;;9.10;4.20;;;14.30;99.90;;;;;;5113649;28;20184;-59
2022/10/30 05:11:54;;;;;;;6.40;4.30;;;14.30;99.90;;;;;;5098830;28;20330;-59
2022/10/30 05:14:20;;;;;;;9.00;4.30;;;14.30;99.90;;;;;;5113080;28;20177;-60
2022/10/30 05:16:45;;;;;;;8.47;4.40;;;14.30;99.90;;;;;;5112547;28;20188;-58
2022/10/30 05:19:11;;;;;;;7.60;4.27;;;14.30;99.90;;;;;;5112137;28;20550;-56
2022/10/30 05:21:37;;;;;;;10.47;4.60;;;14.30;99.90;;;;;;5113028;28;20193;-59
2022/10/30 05:24:02;;;;;;;8.03;4.67;;;14.20;99.90;;;;;;5112815;28;20258;-55
2022/10/30 05:26:28;;;;;;;7.00;4.47;;;14.20;99.90;;;;;;5094510;28;20222;-59
2022/10/30 05:28:53;;;;;;;10.90;4.70;;;14.20;99.90;;;;;;5112544;28;20175;-59
2022/10/30 05:31:19;;;;;;;14.23;8.77;;;14.20;99.90;;;;;;5109761;28;20194;-56
2022/10/30 05:33:44;;;;;;;11.60;6.10;;;14.20;99.90;;;;;;5111924;28;20183;-60
2022/10/30 05:36:10;;;;;;;10.30;5.40;;;14.00;99.90;;;;;;5112930;28;20616;-58
2022/10/30 05:38:36;;;;;;;11.47;7.63;;;13.10;99.90;;;;;;5112514;28;20256;-58
2022/10/30 05:41:01;;;;;;;15.53;10.47;;;13.90;99.90;;;;;;5112798;28;20564;-59
2022/10/30 05:43:27;;;;;;;9.93;5.73;;;13.90;99.90;;;;;;5111274;28;20226;-58
2022/10/30 05:45:52;;;;;;;10.40;5.50;;;13.90;99.90;;;;;;5112722;28;20200;-57
2022/10/30 05:48:18;;;;;;;8.73;5.47;;;13.90;99.90;;;;;;5112411;28;20185;-58
2022/10/30 05:50:43;;;;;;;8.20;5.33;;;14.00;99.90;;;;;;5111586;28;20280;-58
2022/10/30 05:53:09;;;;;;;6.93;4.90;;;14.00;99.90;;;;;;5112253;28;20280;-60
2022/10/30 05:55:35;;;;;;;11.67;4.60;;;14.00;99.90;;;;;;5112497;28;20180;-58
2022/10/30 05:58:05;;;;;;;9.83;5.13;;;14.10;99.90;;;;;;5094085;28;20183;-57
2022/10/30 06:00:33;;;;;;;7.63;4.90;;;14.00;99.90;;;;;;5112317;28;20198;-59
2022/10/30 06:03:04;;;;;;;8.20;5.13;;;14.00;99.90;;;;;;5112242;28;20256;-58
2022/10/30 06:05:31;;;;;;;12.53;4.60;;;14.00;99.90;;;;;;5088244;28;20180;-57
2022/10/30 06:07:57;;;;;;;7.67;5.00;;;12.30;99.90;;;;;;5111727;28;20178;-59
2022/10/30 06:10:23;;;;;;;7.00;5.20;;;14.00;99.90;;;;;;5111681;28;20262;-56
2022/10/30 06:12:59;;;;;;;11.87;5.30;;;14.00;99.90;;;;;;5111651;28;20604;-59
2022/10/30 06:15:25;;;;;;;10.23;5.17;;;14.10;99.90;;;;;;5112270;28;20538;-59
2022/10/30 06:17:51;;;;;;;8.90;5.07;;;14.10;99.90;;;;;;5112289;28;20174;-58
2022/10/30 06:20:19;;;;;;;8.63;5.03;;;14.10;99.90;;;;;;5112198;28;20249;-59
2022/10/30 06:23:05;;;;;;;10.67;5.30;;;14.10;99.90;;;;;;5112308;28;20179;-58
2022/10/30 06:25:33;;;;;;;9.77;5.30;;;14.20;99.90;;;;;;5112286;28;20171;-59
2022/10/30 06:27:59;;;;;;;10.53;5.47;;;14.20;99.90;;;;;;5112229;28;20163;-57
2022/10/30 06:30:26;;;;;;;8.13;5.23;;;14.30;99.90;;;;;;5111898;28;20271;-59
2022/10/30 06:33:02;;;;;;;8.77;4.93;;;14.40;99.90;;;;;;5112224;28;20254;-59
2022/10/30 06:35:28;;;;;;;9.73;5.97;;;14.40;99.90;;;;;;5111842;28;20169;-56
2022/10/30 06:37:55;;;;;;;11.33;6.40;;;14.50;99.90;;;;;;5112113;28;20170;-59
2022/10/30 06:40:23;;;;;;;10.87;7.43;;;14.50;99.90;;;;;;5111786;28;20596;-58
2022/10/30 06:42:52;;;;;;;10.27;7.40;;;14.60;99.90;;;;;;5111902;28;20236;-61
2022/10/30 06:45:19;;;;;;;10.10;6.60;;;14.70;99.90;;;;;;5111517;28;20318;-58
2022/10/30 06:47:44;;;;;;;9.13;6.00;;;14.80;99.90;;;;;;5112000;28;20170;-59
2022/10/30 06:50:14;;;;;;;9.73;5.80;;;14.90;99.90;;;;;;5111719;28;20843;-59
2022/10/30 06:52:40;;;;;;;11.00;4.87;;;15.40;99.90;;;;;;5111812;28;20677;-59
2022/10/30 06:55:06;;;;;;;9.17;4.57;;;15.30;99.90;;;;;;5111424;28;20254;-59
2022/10/30 06:57:32;;;;;;;9.37;4.90;;;15.60;99.90;;;;;;5111623;28;20238;-60
2022/10/30 06:59:57;;;;;;;8.23;4.73;;;15.70;99.90;;;;;;5111754;28;20175;-57
2022/10/30 07:02:23;;;;;;;9.47;4.57;;;15.90;99.90;;;;;;5111433;28;20273;-60
2022/10/30 07:04:49;;;;;;;9.03;4.90;;;16.10;99.90;;;;;;5111438;28;20207;-59
2022/10/30 07:07:15;;;;;;;8.17;4.33;;;16.60;99.90;;;;;;5111485;28;20547;-61
2022/10/30 07:09:41;;;;;;;7.17;4.50;;;16.80;99.90;;;;;;5111559;28;20185;-59
2022/10/30 07:12:07;;;;;;;11.93;5.50;;;17.40;99.90;;;;;;5111347;28;20193;-60
2022/10/30 07:14:34;;;;;;;9.67;5.07;;;18.00;99.90;;;;;;5111314;28;20608;-62
2022/10/30 07:17:00;;;;;;;6.77;4.27;;;18.50;99.90;;;;;;5111442;28;20183;-61
2022/10/30 07:19:25;;;;;;;7.60;4.60;;;19.00;99.90;;;;;;5111466;28;20230;-62
2022/10/30 07:21:51;;;;;;;7.40;4.23;;;19.80;99.90;;;;;;5111183;28;20268;-60
2022/10/30 07:24:16;;;;;;;7.57;4.03;;;20.80;99.90;;;;;;5111024;28;20184;-57
2022/10/30 07:26:42;;;;;;;7.15;4.10;;;21.70;99.90;;;;;;5111038;28;20206;-62
2022/10/30 07:29:07;;;;;;;6.60;3.70;;;22.50;99.90;;;;;;5111293;28;20185;-60
2022/10/30 07:31:33;;;;;;;8.18;3.85;;;23.30;99.90;;;;;;5115093;28;20300;-60
2022/10/30 07:33:59;;;;;;;4.55;3.42;;;24.10;99.90;;;;;;5115195;28;20278;-60
2022/10/30 07:36:24;;;;;;;6.63;3.70;;;24.90;99.90;;;;;;5115422;28;20172;-62
2022/10/30 07:38:51;;;;;;;9.10;3.38;;;25.70;99.40;;;;;;5115372;28;20833;-60
2022/10/30 07:41:17;;;;;;;6.40;3.38;;;26.40;97.90;;;;;;5115162;28;20254;-62
2022/10/30 07:43:43;;;;;;;8.05;3.58;;;27.10;96.60;;;;;;5114847;28;20188;-60
2022/10/30 07:46:08;;;;;;;8.02;3.47;;;27.70;95.50;;;;;;5115152;28;20205;-60
2022/10/30 07:48:34;;;;;;;5.80;3.30;;;28.30;94.10;;;;;;5115095;28;20520;-64
2022/10/30 07:50:59;;;;;;;5.88;3.22;;;28.90;93.20;;;;;;5115042;28;20207;-61
2022/10/30 07:53:25;;;;;;;5.93;3.65;;;29.60;91.60;;;;;;5114713;28;20165;-59
2022/10/30 07:55:50;;;;;;;6.65;3.60;;;30.30;90.60;;;;;;5114951;28;20181;-62
2022/10/30 07:58:16;;;;;;;6.78;3.58;;;31.00;88.20;;;;;;5114921;28;20201;-62
2022/10/30 08:00:41;;;;;;;5.35;3.53;;;31.60;85.60;;;;;;5114756;28;20799;-60
2022/10/30 08:03:09;;;;;;;6.82;3.95;;;32.00;82.90;;;;;;5114733;28;20245;-61
2022/10/30 08:05:35;;;;;;;6.28;3.90;;;32.30;81.00;;;;;;5114677;28;20260;-63
2022/10/30 08:08:00;;;;;;;8.10;3.53;;;32.50;79.50;;;;;;5114770;28;20241;-62
2022/10/30 08:10:26;;;;;;;5.53;3.65;;;32.80;77.90;;;;;;5114559;28;20204;-61
2022/10/30 08:12:52;;;;;;;7.50;3.80;;;33.00;76.70;;;;;;5114732;28;20188;-62
2022/10/30 08:15:17;;;;;;;5.72;3.60;;;33.30;74.70;;;;;;5114355;28;20260;-58
2022/10/30 08:17:45;;;;;;;7.43;3.47;;;33.70;72.70;;;;;;5114906;28;20250;-62
2022/10/30 08:20:12;;;;;;;5.55;3.30;;;34.10;72.30;;;;;;5114334;28;20173;-62
2022/10/30 08:22:52;;;;;;;5.38;3.38;;;34.30;72.50;;;;;;5114518;28;20214;-63
2022/10/30 08:25:20;;;;;;;6.90;3.50;;;34.30;72.20;;;;;;5114104;28;20169;-59
2022/10/30 08:27:59;;;;;;;8.23;4.03;;;34.20;72.70;;;;;;5114454;28;20173;-62
2022/10/30 08:30:28;;;;;;;7.32;3.72;;;33.80;71.30;;;;;;5114208;28;20189;-61
2022/10/30 08:32:57;;;;;;;6.60;3.97;;;33.50;72.00;;;;;;5114354;28;20209;-61
2022/10/30 08:35:23;;;;;;;6.45;3.60;;;33.30;72.90;;;;;;5113848;28;20193;-62
2022/10/30 08:37:51;;;;;;;9.57;4.57;;;33.60;73.70;;;;;;5114239;28;20238;-61
2022/10/30 08:40:16;;;;;;;8.40;3.90;;;33.50;72.50;;;;;;5113936;28;20196;-62
2022/10/30 08:42:48;;;;;;;6.20;4.05;;;33.10;73.40;;;;;;5113015;28;20161;-59
2022/10/30 08:45:14;;;;;;;8.45;4.00;;;33.00;74.30;;;;;;5113909;28;20176;-62
2022/10/30 08:47:39;;;;;;;9.27;3.95;;;32.60;73.80;;;;;;5113836;28;20197;-62
2022/10/30 08:50:05;;;;;;;7.10;3.90;;;32.30;74.00;;;;;;5114088;28;20238;-60
2022/10/30 08:52:31;;;;;;;5.25;3.47;;;32.00;76.10;;;;;;5113830;28;20173;-60
2022/10/30 08:54:56;;;;;;;5.00;3.38;;;31.90;75.80;;;;;;5113637;28;20170;-62
2022/10/30 08:57:22;;;;;;;6.93;3.90;;;31.70;76.60;;;;;;5113795;28;20184;-63
2022/10/30 08:59:47;;;;;;;5.95;4.07;;;31.50;76.00;;;;;;5113859;28;20170;-60
2022/10/30 09:02:13;;;;;;;8.43;3.55;;;31.60;77.80;;;;;;5113468;28;20254;-62
2022/10/30 09:04:38;;;;;;;5.30;3.40;;;32.00;77.90;;;;;;5113461;28;20173;-62
2022/10/30 09:07:04;;;;;;;8.52;3.28;;;32.80;76.30;;;;;;5113520;28;20307;-61
2022/10/30 09:09:29;;;;;;;7.35;3.08;;;33.70;67.90;;;;;;5095383;28;20309;-61
2022/10/30 09:11:55;;;;;;;6.57;3.17;;;33.80;67.50;;;;;;5113353;28;20186;-62
2022/10/30 09:14:21;;;;;;;6.85;3.47;;;34.20;66.50;;;;;;5113353;28;20699;-62
2022/10/30 09:16:46;;;;;;;8.43;3.33;;;34.10;66.60;;;;;;5113550;28;20842;-59
2022/10/30 09:19:12;;;;;;;10.27;4.18;;;34.20;65.50;;;;;;5113298;28;20236;-62
2022/10/30 09:21:37;;;;;;;7.57;3.47;;;34.60;63.90;;;;;;5113225;28;20326;-61
2022/10/30 09:24:03;;;;;;;5.80;2.90;;;34.80;62.90;;;;;;5112986;28;20174;-59
2022/10/30 09:26:29;;;;;;;5.47;2.92;;;35.20;63.30;;;;;;5113417;28;20276;-60
2022/10/30 09:28:54;;;;;;;6.07;3.30;;;35.20;60.50;;;;;;5113209;28;20173;-60
2022/10/30 09:31:20;;;;;;;10.43;3.20;;;34.50;61.40;;;;;;5113049;28;20193;-62
2022/10/30 09:33:45;;;;;;;6.90;3.10;;;34.20;61.90;;;;;;5112711;28;20165;-60
2022/10/30 09:36:11;;;;;;;9.18;3.45;;;34.20;63.40;;;;;;5094835;28;20177;-62
2022/10/30 09:38:36;;;;;;;6.03;3.08;;;34.40;61.40;;;;;;5112932;28;20250;-62
2022/10/30 09:41:02;;;;;;;9.38;3.42;;;34.50;61.40;;;;;;5112913;28;20181;-62
2022/10/30 09:43:58;;;;;;;4.50;2.67;;;34.70;61.20;;;;;;5112565;28;20173;-61
2022/10/30 09:46:43;;;;;;;10.25;3.10;;;35.50;61.20;;;;;;5112823;28;20207;-62
2022/10/30 09:49:33;;;;;;;7.72;3.33;;;36.20;60.20;;;;;;5112730;28;20295;-62
2022/10/30 09:52:07;;;;;;;8.73;3.30;;;37.30;58.30;;;;;;5112630;28;20189;-61
2022/10/30 09:54:46;;;;;;;5.65;3.00;;;38.20;57.00;;;;;;5112143;28;20583;-61
2022/10/30 09:57:15;;;;;;;5.35;2.90;;;39.00;55.30;;;;;;5112787;28;20611;-63
2022/10/30 10:00:02;;;;;;;8.07;3.30;;;39.60;54.50;;;;;;5112520;28;20275;-63
2022/10/30 10:02:36;;;;;;;6.55;3.17;;;39.90;51.20;;;;;;5112424;28;20219;-62
2022/10/30 10:05:24;;;;;;;4.75;2.70;;;39.40;51.70;;;;;;5112183;28;20533;-61
2022/10/30 10:07:56;;;;;;;6.55;3.53;;;39.10;51.80;;;;;;5112509;28;20738;-59
2022/10/30 10:10:33;;;;;;;6.80;3.30;;;39.10;52.50;;;;;;5112296;28;20180;-60
2022/10/30 10:12:59;;;;;;;7.63;3.38;;;39.00;54.80;;;;;;5112319;28;20198;-63
2022/10/30 10:15:47;;;;;;;6.18;3.22;;;38.90;55.70;;;;;;5112000;28;20185;-61
2022/10/30 10:18:19;;;;;;;7.93;3.28;;;38.80;55.80;;;;;;5112372;28;20169;-62
2022/10/30 10:20:49;;;;;;;5.63;2.95;;;39.10;54.80;;;;;;5094327;28;20526;-62
2022/10/30 10:23:26;;;;;;;7.07;3.38;;;38.80;55.70;;;;;;5111991;28;20161;-62
2022/10/30 10:25:53;;;;;;;9.23;3.30;;;38.50;55.40;;;;;;5112009;28;20296;-63
2022/10/30 10:28:21;;;;;;;7.88;3.63;;;38.40;55.60;;;;;;5112168;28;20165;-60
2022/10/30 10:31:26;;;;;;;8.02;3.47;;;37.60;54.90;;;;;;5111780;28;20739;-60
2022/10/30 10:34:33;;;;;;;8.57;3.72;;;37.90;54.40;;;;;;5009149;28;20238;-60
2022/10/30 10:37:07;;;;;;;5.38;3.10;;;37.70;54.30;;;;;;4989622;28;20188;-62
2022/10/30 10:39:57;;;;;;;9.43;3.92;;;37.50;54.60;;;;;;4989789;28;20289;-63
2022/10/30 10:42:31;;;;;;;6.75;2.88;;;37.20;54.80;;;;;;4989422;28;20256;-57
2022/10/30 10:45:05;;;;;;;6.43;3.25;;;37.10;54.50;;;;;;4989365;28;20267;-61
2022/10/30 10:47:49;;;;;;;5.55;3.05;;;37.20;55.00;;;;;;4989590;28;20205;-61
2022/10/30 10:50:24;;;;;;;7.68;3.78;;;37.70;54.60;;;;;;4989465;28;20177;-62
2022/10/30 10:53:02;;;;;;;5.78;3.38;;;38.00;53.10;;;;;;4989404;28;20211;-63
2022/10/30 10:55:35;;;;;;;9.75;3.40;;;38.00;51.90;;;;;;4989434;28;20247;-62
2022/10/30 10:58:10;;;;;;;9.70;3.80;;;38.00;52.30;;;;;;4989414;28;20264;-60
2022/10/30 11:00:36;;;;;;;8.23;3.42;;;37.90;53.80;;;;;;4989217;28;20226;-61
2022/10/30 11:03:08;;;;;;;9.85;3.28;;;37.70;51.80;;;;;;4989270;28;20197;-60
2022/10/30 11:05:39;;;;;;;9.63;3.58;;;37.60;52.50;;;;;;4988742;28;20216;-62
2022/10/30 11:08:24;;;;;;;10.93;3.70;;;38.20;52.90;;;;;;4989318;28;20170;-62
2022/10/30 11:11:01;;;;;;;9.00;3.30;;;37.00;53.50;;;;;;5041668;28;20206;-62
2022/10/30 11:13:34;;;;;;;10.90;3.72;;;37.00;54.00;;;;;;5090670;28;20162;-62
2022/10/30 11:16:33;;;;;;;8.07;3.45;;;37.50;54.80;;;;;;5091065;28;20166;-59
2022/10/30 11:19:02;;;;;;;9.40;3.28;;;38.20;53.00;;;;;;5091007;28;20515;-63
2022/10/30 11:21:33;;;;;;;6.47;3.45;;;38.40;53.30;;;;;;5090940;28;20197;-63
2022/10/30 11:23:59;;;;;;;7.50;3.25;;;38.80;51.80;;;;;;5090661;28;20257;-61
2022/10/30 11:26:30;;;;;;;5.55;3.42;;;39.00;51.90;;;;;;5090937;28;20601;-60
2022/10/30 11:29:12;;;;;;;7.13;3.00;;;39.20;51.60;;;;;;5090977;28;20162;-62
2022/10/30 11:31:43;;;;;;;6.03;3.03;;;39.10;51.80;;;;;;5090849;28;20727;-61
2022/10/30 11:34:17;;;;;;;8.52;3.50;;;39.00;51.40;;;;;;5090641;28;20173;-62
2022/10/30 11:36:50;;;;;;;9.98;3.35;;;38.90;51.40;;;;;;5090797;28;20165;-62
2022/10/30 11:39:25;;;;;;;9.10;3.67;;;39.00;51.20;;;;;;5090882;28;20708;-62
2022/10/30 11:41:56;;;;;;;5.65;3.25;;;39.80;50.90;;;;;;5090739;28;20893;-60
2022/10/30 11:44:29;;;;;;;7.05;3.17;;;40.60;49.30;;;;;;5090471;28;20256;-61
2022/10/30 11:46:56;;;;;;;6.50;3.10;;;41.00;49.60;;;;;;5090588;28;20197;-63
2022/10/30 11:49:33;;;;;;;7.38;2.80;;;41.10;49.20;;;;;;5090785;28;20184;-62
2022/10/30 11:51:59;;;;;;;7.50;3.28;;;41.10;49.70;;;;;;5090622;28;20197;-61
2022/10/30 11:54:26;;;;;;;6.85;3.22;;;41.20;48.60;;;;;;5090469;28;20208;-60
2022/10/30 11:56:53;;;;;;;7.70;3.20;;;41.20;48.50;;;;;;5090648;28;20212;-62
2022/10/30 11:59:21;;;;;;;8.27;2.95;;;41.40;48.10;;;;;;5072334;28;20702;-61
2022/10/30 12:01:58;;;;;;;8.23;3.08;;;41.60;48.00;;;;;;5091536;28;20272;-61
2022/10/30 12:04:26;;;;;;;8.18;3.30;;;41.70;47.70;;;;;;5090425;28;20173;-60
2022/10/30 12:07:23;;;;;;;8.05;3.40;;;41.70;47.30;;;;;;5090355;28;20193;-61
2022/10/30 12:09:49;;;;;;;5.82;2.95;;;41.60;47.70;;;;;;5090433;28;20249;-59
2022/10/30 12:12:20;;;;;;;4.85;3.05;;;41.20;47.60;;;;;;5090448;28;20706;-60
2022/10/30 12:14:46;;;;;;;6.63;3.00;;;41.10;48.00;;;;;;5090327;28;20161;-61
2022/10/30 12:17:14;;;;;;;7.05;3.00;;;41.30;46.40;;;;;;5093370;28;20191;-61
2022/10/30 12:19:45;;;;;;;10.27;3.42;;;41.30;47.40;;;;;;5094088;28;20212;-61
2022/10/30 12:22:24;;;;;;;6.00;3.10;;;41.60;47.60;;;;;;5093906;28;20185;-61
2022/10/30 12:24:50;;;;;;;10.55;3.55;;;41.90;47.80;;;;;;5093934;28;20634;-61
2022/10/30 12:27:16;;;;;;;6.00;3.20;;;41.70;46.20;;;;;;5093936;28;20200;-60
2022/10/30 12:29:56;;;;;;;8.68;3.63;;;41.00;46.80;;;;;;5093974;28;20185;-61
2022/10/30 12:32:26;;;;;;;6.85;3.30;;;40.40;47.70;;;;;;5093811;28;20608;-60
2022/10/30 12:35:16;;;;;;;7.43;3.50;;;40.10;48.10;;;;;;5093642;28;20573;-61
2022/10/30 12:37:43;;;;;;;9.90;3.40;;;39.80;49.50;;;;;;5093811;28;20169;-60
2022/10/30 12:40:20;;;;;;;8.38;3.15;;;39.20;50.20;;;;;;5093386;28;20166;-60
2022/10/30 12:42:59;;;;;;;9.82;3.50;;;39.10;49.90;;;;;;5093617;28;20283;-61
2022/10/30 12:45:35;;;;;;;5.18;3.17;;;38.90;50.40;;;;;;5093645;28;20227;-61
2022/10/30 12:48:09;;;;;;;8.00;3.33;;;38.40;52.10;;;;;;5093585;28;20169;-61
2022/10/30 12:50:35;;;;;;;6.70;3.30;;;38.60;51.50;;;;;;5093662;28;20564;-60
2022/10/30 12:53:19;;;;;;;9.98;3.60;;;38.40;51.40;;;;;;5093549;28;20173;-60
2022/10/30 12:55:49;;;;;;;9.60;3.25;;;38.10;50.10;;;;;;5093546;28;20636;-61